sensor_id;sensor_type;location;lat;lon;timestamp;P1;durP1;ratioP1;P2;durP2;ratioP2
74371;SDS011;62885;51.374;6.170;2023-09-18T00:00:22;7.30;;;4.32;;
74371;SDS011;62885;51.374;6.170;2023-09-18T00:02:47;10.00;;;5.07;;
74371;SDS011;62885;51.374;6.170;2023-09-18T00:05:13;8.07;;;5.05;;
74371;SDS011;62885;51.374;6.170;2023-09-18T00:07:41;9.48;;;5.15;;
74371;SDS011;62885;51.374;6.170;2023-09-18T00:10:08;7.35;;;4.45;;
74371;SDS011;62885;51.374;6.170;2023-09-18T00:12:34;12.38;;;5.80;;
74371;SDS011;62885;51.374;6.170;2023-09-18T00:14:59;9.63;;;4.53;;
74371;SDS011;62885;51.374;6.170;2023-09-18T00:17:25;15.52;;;4.45;;
74371;SDS011;62885;51.374;6.170;2023-09-18T00:19:50;11.02;;;4.68;;
74371;SDS011;62885;51.374;6.170;2023-09-18T00:22:16;8.40;;;4.55;;
74371;SDS011;62885;51.374;6.170;2023-09-18T00:24:42;9.02;;;4.53;;
74371;SDS011;62885;51.374;6.170;2023-09-18T00:27:07;9.63;;;5.25;;
74371;SDS011;62885;51.374;6.170;2023-09-18T00:29:33;8.25;;;4.85;;
74371;SDS011;62885;51.374;6.170;2023-09-18T00:31:58;7.15;;;5.03;;
74371;SDS011;62885;51.374;6.170;2023-09-18T00:34:23;9.23;;;4.60;;
74371;SDS011;62885;51.374;6.170;2023-09-18T00:36:49;9.63;;;4.90;;
74371;SDS011;62885;51.374;6.170;2023-09-18T00:39:14;10.00;;;5.07;;
74371;SDS011;62885;51.374;6.170;2023-09-18T00:41:40;8.27;;;5.25;;
74371;SDS011;62885;51.374;6.170;2023-09-18T00:44:06;11.98;;;4.78;;
74371;SDS011;62885;51.374;6.170;2023-09-18T00:46:31;6.88;;;4.45;;
74371;SDS011;62885;51.374;6.170;2023-09-18T00:48:58;8.52;;;4.70;;
74371;SDS011;62885;51.374;6.170;2023-09-18T00:51:24;9.35;;;4.95;;
74371;SDS011;62885;51.374;6.170;2023-09-18T00:53:49;10.48;;;4.90;;
74371;SDS011;62885;51.374;6.170;2023-09-18T00:56:15;8.43;;;4.85;;
74371;SDS011;62885;51.374;6.170;2023-09-18T00:58:42;8.88;;;4.75;;
74371;SDS011;62885;51.374;6.170;2023-09-18T01:01:08;9.60;;;4.45;;
74371;SDS011;62885;51.374;6.170;2023-09-18T01:03:36;10.23;;;4.70;;
74371;SDS011;62885;51.374;6.170;2023-09-18T01:06:01;9.98;;;5.32;;
74371;SDS011;62885;51.374;6.170;2023-09-18T01:08:28;9.15;;;5.25;;
74371;SDS011;62885;51.374;6.170;2023-09-18T01:14:37;10.48;;;4.97;;
74371;SDS011;62885;51.374;6.170;2023-09-18T01:17:03;9.90;;;4.57;;
74371;SDS011;62885;51.374;6.170;2023-09-18T01:19:34;8.85;;;4.93;;
74371;SDS011;62885;51.374;6.170;2023-09-18T01:22:01;10.15;;;5.28;;
74371;SDS011;62885;51.374;6.170;2023-09-18T01:24:26;10.00;;;4.50;;
74371;SDS011;62885;51.374;6.170;2023-09-18T01:26:51;9.48;;;4.80;;
74371;SDS011;62885;51.374;6.170;2023-09-18T01:29:17;11.05;;;6.03;;
74371;SDS011;62885;51.374;6.170;2023-09-18T01:31:44;12.20;;;5.30;;
74371;SDS011;62885;51.374;6.170;2023-09-18T01:34:12;8.85;;;4.82;;
74371;SDS011;62885;51.374;6.170;2023-09-18T01:36:37;8.20;;;4.63;;
74371;SDS011;62885;51.374;6.170;2023-09-18T01:39:03;9.10;;;4.93;;
74371;SDS011;62885;51.374;6.170;2023-09-18T01:41:30;7.80;;;4.20;;
74371;SDS011;62885;51.374;6.170;2023-09-18T01:43:56;10.45;;;4.63;;
74371;SDS011;62885;51.374;6.170;2023-09-18T01:46:21;10.50;;;4.45;;
74371;SDS011;62885;51.374;6.170;2023-09-18T01:48:47;10.65;;;5.40;;
74371;SDS011;62885;51.374;6.170;2023-09-18T01:51:13;11.30;;;5.97;;
74371;SDS011;62885;51.374;6.170;2023-09-18T01:53:40;10.55;;;5.28;;
74371;SDS011;62885;51.374;6.170;2023-09-18T01:56:06;9.65;;;4.63;;
74371;SDS011;62885;51.374;6.170;2023-09-18T01:58:32;8.98;;;5.20;;
74371;SDS011;62885;51.374;6.170;2023-09-18T02:01:00;10.10;;;5.63;;
74371;SDS011;62885;51.374;6.170;2023-09-18T02:03:25;10.73;;;5.28;;
74371;SDS011;62885;51.374;6.170;2023-09-18T02:05:51;10.55;;;5.75;;
74371;SDS011;62885;51.374;6.170;2023-09-18T02:08:16;12.60;;;5.25;;
74371;SDS011;62885;51.374;6.170;2023-09-18T02:10:41;11.52;;;4.65;;
74371;SDS011;62885;51.374;6.170;2023-09-18T02:13:07;9.57;;;5.15;;
74371;SDS011;62885;51.374;6.170;2023-09-18T02:15:32;8.73;;;4.93;;
74371;SDS011;62885;51.374;6.170;2023-09-18T02:18:00;12.70;;;4.93;;
74371;SDS011;62885;51.374;6.170;2023-09-18T02:20:25;9.18;;;4.55;;
74371;SDS011;62885;51.374;6.170;2023-09-18T02:22:50;8.45;;;4.93;;
74371;SDS011;62885;51.374;6.170;2023-09-18T02:25:16;11.65;;;5.90;;
74371;SDS011;62885;51.374;6.170;2023-09-18T02:27:42;8.80;;;5.07;;
74371;SDS011;62885;51.374;6.170;2023-09-18T02:30:07;10.18;;;4.90;;
74371;SDS011;62885;51.374;6.170;2023-09-18T02:32:34;11.10;;;5.28;;
74371;SDS011;62885;51.374;6.170;2023-09-18T02:35:01;10.10;;;4.97;;
74371;SDS011;62885;51.374;6.170;2023-09-18T02:37:27;8.38;;;4.82;;
74371;SDS011;62885;51.374;6.170;2023-09-18T02:39:54;8.35;;;4.68;;
74371;SDS011;62885;51.374;6.170;2023-09-18T02:42:19;10.63;;;4.93;;
74371;SDS011;62885;51.374;6.170;2023-09-18T02:44:44;9.52;;;5.30;;
74371;SDS011;62885;51.374;6.170;2023-09-18T02:47:10;9.35;;;4.60;;
74371;SDS011;62885;51.374;6.170;2023-09-18T02:49:35;8.85;;;4.97;;
74371;SDS011;62885;51.374;6.170;2023-09-18T02:52:01;9.43;;;4.90;;
74371;SDS011;62885;51.374;6.170;2023-09-18T02:54:28;7.68;;;4.35;;
74371;SDS011;62885;51.374;6.170;2023-09-18T02:56:53;11.07;;;4.30;;
74371;SDS011;62885;51.374;6.170;2023-09-18T02:59:18;9.43;;;4.95;;
74371;SDS011;62885;51.374;6.170;2023-09-18T03:01:44;11.63;;;4.95;;
74371;SDS011;62885;51.374;6.170;2023-09-18T03:04:09;10.48;;;5.35;;
74371;SDS011;62885;51.374;6.170;2023-09-18T03:06:37;10.52;;;5.15;;
74371;SDS011;62885;51.374;6.170;2023-09-18T03:09:04;9.27;;;5.07;;
74371;SDS011;62885;51.374;6.170;2023-09-18T03:11:29;10.98;;;5.10;;
74371;SDS011;62885;51.374;6.170;2023-09-18T03:13:55;8.82;;;5.00;;
74371;SDS011;62885;51.374;6.170;2023-09-18T03:16:20;12.65;;;4.78;;
74371;SDS011;62885;51.374;6.170;2023-09-18T03:18:46;12.60;;;5.28;;
74371;SDS011;62885;51.374;6.170;2023-09-18T03:21:11;10.63;;;4.85;;
74371;SDS011;62885;51.374;6.170;2023-09-18T03:23:36;13.27;;;4.45;;
74371;SDS011;62885;51.374;6.170;2023-09-18T03:26:02;10.68;;;4.93;;
74371;SDS011;62885;51.374;6.170;2023-09-18T03:28:27;9.57;;;4.30;;
74371;SDS011;62885;51.374;6.170;2023-09-18T03:30:53;6.63;;;3.95;;
74371;SDS011;62885;51.374;6.170;2023-09-18T03:33:18;9.05;;;4.30;;
74371;SDS011;62885;51.374;6.170;2023-09-18T03:35:47;11.52;;;3.92;;
74371;SDS011;62885;51.374;6.170;2023-09-18T03:38:14;9.75;;;4.18;;
74371;SDS011;62885;51.374;6.170;2023-09-18T03:40:39;9.82;;;4.15;;
74371;SDS011;62885;51.374;6.170;2023-09-18T03:43:06;8.10;;;3.38;;
74371;SDS011;62885;51.374;6.170;2023-09-18T03:45:32;7.03;;;3.72;;
74371;SDS011;62885;51.374;6.170;2023-09-18T03:47:57;8.82;;;3.80;;
74371;SDS011;62885;51.374;6.170;2023-09-18T03:50:23;7.38;;;3.47;;
74371;SDS011;62885;51.374;6.170;2023-09-18T03:52:48;7.30;;;4.03;;
74371;SDS011;62885;51.374;6.170;2023-09-18T03:55:13;9.82;;;3.83;;
74371;SDS011;62885;51.374;6.170;2023-09-18T03:57:39;10.07;;;4.03;;
74371;SDS011;62885;51.374;6.170;2023-09-18T04:00:05;8.20;;;4.18;;
74371;SDS011;62885;51.374;6.170;2023-09-18T04:02:32;8.43;;;3.05;;
74371;SDS011;62885;51.374;6.170;2023-09-18T04:04:58;11.35;;;4.30;;
74371;SDS011;62885;51.374;6.170;2023-09-18T04:07:23;10.13;;;3.78;;
74371;SDS011;62885;51.374;6.170;2023-09-18T04:09:49;8.85;;;3.40;;
74371;SDS011;62885;51.374;6.170;2023-09-18T04:12:14;7.75;;;3.33;;
74371;SDS011;62885;51.374;6.170;2023-09-18T04:14:40;9.18;;;3.83;;
74371;SDS011;62885;51.374;6.170;2023-09-18T04:17:06;14.18;;;4.20;;
74371;SDS011;62885;51.374;6.170;2023-09-18T04:19:31;11.73;;;3.80;;
74371;SDS011;62885;51.374;6.170;2023-09-18T04:21:57;13.55;;;3.60;;
74371;SDS011;62885;51.374;6.170;2023-09-18T04:24:22;9.75;;;3.33;;
74371;SDS011;62885;51.374;6.170;2023-09-18T04:26:48;12.65;;;3.72;;
74371;SDS011;62885;51.374;6.170;2023-09-18T04:29:16;8.02;;;3.08;;
74371;SDS011;62885;51.374;6.170;2023-09-18T04:31:41;12.38;;;3.67;;
74371;SDS011;62885;51.374;6.170;2023-09-18T04:34:10;8.70;;;3.60;;
74371;SDS011;62885;51.374;6.170;2023-09-18T04:36:35;11.52;;;3.47;;
74371;SDS011;62885;51.374;6.170;2023-09-18T04:39:02;7.38;;;3.28;;
74371;SDS011;62885;51.374;6.170;2023-09-18T04:41:29;9.77;;;4.10;;
74371;SDS011;62885;51.374;6.170;2023-09-18T04:43:55;10.18;;;3.72;;
74371;SDS011;62885;51.374;6.170;2023-09-18T04:46:20;12.23;;;3.80;;
74371;SDS011;62885;51.374;6.170;2023-09-18T04:48:46;14.57;;;4.13;;
74371;SDS011;62885;51.374;6.170;2023-09-18T04:51:12;9.45;;;3.67;;
74371;SDS011;62885;51.374;6.170;2023-09-18T04:53:37;14.13;;;3.88;;
74371;SDS011;62885;51.374;6.170;2023-09-18T04:56:03;11.77;;;4.78;;
74371;SDS011;62885;51.374;6.170;2023-09-18T04:58:29;11.77;;;3.65;;
74371;SDS011;62885;51.374;6.170;2023-09-18T05:00:56;11.52;;;3.85;;
74371;SDS011;62885;51.374;6.170;2023-09-18T05:03:22;13.07;;;5.32;;
74371;SDS011;62885;51.374;6.170;2023-09-18T05:05:48;10.40;;;4.05;;
74371;SDS011;62885;51.374;6.170;2023-09-18T05:08:13;12.55;;;4.00;;
74371;SDS011;62885;51.374;6.170;2023-09-18T05:10:39;12.05;;;3.97;;
74371;SDS011;62885;51.374;6.170;2023-09-18T05:13:04;9.10;;;3.72;;
74371;SDS011;62885;51.374;6.170;2023-09-18T05:15:30;8.15;;;3.70;;
74371;SDS011;62885;51.374;6.170;2023-09-18T05:17:56;8.82;;;3.30;;
74371;SDS011;62885;51.374;6.170;2023-09-18T05:20:23;8.30;;;3.88;;
74371;SDS011;62885;51.374;6.170;2023-09-18T05:22:53;12.45;;;4.07;;
74371;SDS011;62885;51.374;6.170;2023-09-18T05:25:24;9.68;;;3.30;;
74371;SDS011;62885;51.374;6.170;2023-09-18T05:30:26;8.98;;;3.25;;
74371;SDS011;62885;51.374;6.170;2023-09-18T05:32:56;8.63;;;3.42;;
74371;SDS011;62885;51.374;6.170;2023-09-18T05:35:22;11.88;;;3.72;;
74371;SDS011;62885;51.374;6.170;2023-09-18T05:37:48;7.68;;;3.78;;
74371;SDS011;62885;51.374;6.170;2023-09-18T05:40:14;8.85;;;3.53;;
74371;SDS011;62885;51.374;6.170;2023-09-18T05:42:41;8.18;;;3.00;;
74371;SDS011;62885;51.374;6.170;2023-09-18T05:45:08;9.45;;;3.15;;
74371;SDS011;62885;51.374;6.170;2023-09-18T05:47:34;9.35;;;2.83;;
74371;SDS011;62885;51.374;6.170;2023-09-18T05:50:04;8.18;;;3.05;;
74371;SDS011;62885;51.374;6.170;2023-09-18T05:52:48;9.40;;;2.50;;
74371;SDS011;62885;51.374;6.170;2023-09-18T05:55:17;9.90;;;2.80;;
74371;SDS011;62885;51.374;6.170;2023-09-18T05:57:42;8.32;;;3.83;;
74371;SDS011;62885;51.374;6.170;2023-09-18T06:00:08;9.05;;;3.45;;
74371;SDS011;62885;51.374;6.170;2023-09-18T06:02:38;7.93;;;2.67;;
74371;SDS011;62885;51.374;6.170;2023-09-18T06:05:04;8.88;;;2.45;;
74371;SDS011;62885;51.374;6.170;2023-09-18T06:07:30;11.20;;;2.40;;
74371;SDS011;62885;51.374;6.170;2023-09-18T06:09:56;6.38;;;2.50;;
74371;SDS011;62885;51.374;6.170;2023-09-18T06:12:22;6.35;;;2.10;;
74371;SDS011;62885;51.374;6.170;2023-09-18T06:14:48;9.57;;;1.90;;
74371;SDS011;62885;51.374;6.170;2023-09-18T06:17:14;8.43;;;2.08;;
74371;SDS011;62885;51.374;6.170;2023-09-18T06:19:40;7.05;;;2.53;;
74371;SDS011;62885;51.374;6.170;2023-09-18T06:22:06;6.57;;;1.90;;
74371;SDS011;62885;51.374;6.170;2023-09-18T06:24:33;6.88;;;2.80;;
74371;SDS011;62885;51.374;6.170;2023-09-18T06:27:02;5.03;;;1.92;;
74371;SDS011;62885;51.374;6.170;2023-09-18T06:29:31;3.55;;;1.73;;
74371;SDS011;62885;51.374;6.170;2023-09-18T06:31:57;8.00;;;2.08;;
74371;SDS011;62885;51.374;6.170;2023-09-18T06:34:23;4.70;;;1.67;;
74371;SDS011;62885;51.374;6.170;2023-09-18T06:36:48;5.35;;;2.00;;
74371;SDS011;62885;51.374;6.170;2023-09-18T06:39:14;5.93;;;2.00;;
74371;SDS011;62885;51.374;6.170;2023-09-18T06:41:40;5.53;;;2.05;;
74371;SDS011;62885;51.374;6.170;2023-09-18T06:44:05;5.60;;;2.10;;
74371;SDS011;62885;51.374;6.170;2023-09-18T06:46:31;5.85;;;1.85;;
74371;SDS011;62885;51.374;6.170;2023-09-18T06:48:56;7.57;;;2.00;;
74371;SDS011;62885;51.374;6.170;2023-09-18T06:51:25;4.60;;;1.40;;
74371;SDS011;62885;51.374;6.170;2023-09-18T06:53:51;4.93;;;1.80;;
74371;SDS011;62885;51.374;6.170;2023-09-18T06:56:16;5.15;;;1.50;;
74371;SDS011;62885;51.374;6.170;2023-09-18T06:58:42;5.90;;;1.52;;
74371;SDS011;62885;51.374;6.170;2023-09-18T07:01:07;4.00;;;1.40;;
74371;SDS011;62885;51.374;6.170;2023-09-18T07:03:34;6.30;;;1.52;;
74371;SDS011;62885;51.374;6.170;2023-09-18T07:06:01;5.57;;;1.45;;
74371;SDS011;62885;51.374;6.170;2023-09-18T07:08:26;2.60;;;1.40;;
74371;SDS011;62885;51.374;6.170;2023-09-18T07:10:52;5.63;;;1.40;;
74371;SDS011;62885;51.374;6.170;2023-09-18T07:13:17;5.80;;;1.50;;
74371;SDS011;62885;51.374;6.170;2023-09-18T07:15:43;3.63;;;1.17;;
74371;SDS011;62885;51.374;6.170;2023-09-18T07:18:09;6.95;;;1.33;;
74371;SDS011;62885;51.374;6.170;2023-09-18T07:20:39;4.20;;;1.30;;
74371;SDS011;62885;51.374;6.170;2023-09-18T07:23:05;3.80;;;1.42;;
74371;SDS011;62885;51.374;6.170;2023-09-18T07:25:30;3.33;;;1.00;;
74371;SDS011;62885;51.374;6.170;2023-09-18T07:27:55;3.70;;;1.30;;
74371;SDS011;62885;51.374;6.170;2023-09-18T07:30:21;2.58;;;1.10;;
74371;SDS011;62885;51.374;6.170;2023-09-18T07:32:47;3.72;;;1.45;;
74371;SDS011;62885;51.374;6.170;2023-09-18T07:35:12;2.65;;;1.10;;
74371;SDS011;62885;51.374;6.170;2023-09-18T07:37:41;4.88;;;1.30;;
74371;SDS011;62885;51.374;6.170;2023-09-18T07:40:06;3.38;;;1.40;;
74371;SDS011;62885;51.374;6.170;2023-09-18T07:42:32;3.15;;;1.00;;
74371;SDS011;62885;51.374;6.170;2023-09-18T07:44:58;1.60;;;1.10;;
74371;SDS011;62885;51.374;6.170;2023-09-18T07:47:23;3.20;;;1.00;;
74371;SDS011;62885;51.374;6.170;2023-09-18T07:49:49;3.67;;;1.27;;
74371;SDS011;62885;51.374;6.170;2023-09-18T07:52:15;3.22;;;1.30;;
74371;SDS011;62885;51.374;6.170;2023-09-18T07:54:41;4.88;;;1.20;;
74371;SDS011;62885;51.374;6.170;2023-09-18T07:57:07;6.28;;;1.70;;
74371;SDS011;62885;51.374;6.170;2023-09-18T07:59:34;6.45;;;1.40;;
74371;SDS011;62885;51.374;6.170;2023-09-18T08:02:04;3.47;;;1.27;;
74371;SDS011;62885;51.374;6.170;2023-09-18T08:04:33;2.25;;;1.20;;
74371;SDS011;62885;51.374;6.170;2023-09-18T08:07:01;6.13;;;2.17;;
74371;SDS011;62885;51.374;6.170;2023-09-18T08:09:26;3.95;;;1.05;;
74371;SDS011;62885;51.374;6.170;2023-09-18T08:11:55;4.40;;;1.15;;
74371;SDS011;62885;51.374;6.170;2023-09-18T08:14:21;4.07;;;1.58;;
74371;SDS011;62885;51.374;6.170;2023-09-18T08:16:47;4.45;;;1.27;;
74371;SDS011;62885;51.374;6.170;2023-09-18T08:19:15;3.80;;;1.30;;
74371;SDS011;62885;51.374;6.170;2023-09-18T08:21:42;3.03;;;1.00;;
74371;SDS011;62885;51.374;6.170;2023-09-18T08:24:07;4.50;;;1.50;;
74371;SDS011;62885;51.374;6.170;2023-09-18T08:26:33;3.28;;;1.13;;
74371;SDS011;62885;51.374;6.170;2023-09-18T08:28:59;3.35;;;1.20;;
74371;SDS011;62885;51.374;6.170;2023-09-18T08:31:24;3.60;;;1.30;;
74371;SDS011;62885;51.374;6.170;2023-09-18T08:33:49;7.60;;;1.27;;
74371;SDS011;62885;51.374;6.170;2023-09-18T08:36:16;2.03;;;1.25;;
74371;SDS011;62885;51.374;6.170;2023-09-18T08:38:41;2.90;;;1.08;;
74371;SDS011;62885;51.374;6.170;2023-09-18T08:41:09;3.50;;;1.25;;
74371;SDS011;62885;51.374;6.170;2023-09-18T08:43:36;6.32;;;1.40;;
74371;SDS011;62885;51.374;6.170;2023-09-18T08:46:04;3.15;;;1.05;;
74371;SDS011;62885;51.374;6.170;2023-09-18T08:48:29;4.15;;;1.00;;
74371;SDS011;62885;51.374;6.170;2023-09-18T08:51:01;4.32;;;1.10;;
74371;SDS011;62885;51.374;6.170;2023-09-18T08:53:30;1.15;;;0.85;;
74371;SDS011;62885;51.374;6.170;2023-09-18T08:55:57;3.50;;;1.30;;
74371;SDS011;62885;51.374;6.170;2023-09-18T08:58:26;3.47;;;1.27;;
74371;SDS011;62885;51.374;6.170;2023-09-18T09:00:56;2.78;;;1.13;;
74371;SDS011;62885;51.374;6.170;2023-09-18T09:03:22;5.28;;;1.30;;
74371;SDS011;62885;51.374;6.170;2023-09-18T09:05:48;4.55;;;1.38;;
74371;SDS011;62885;51.374;6.170;2023-09-18T09:08:13;2.05;;;1.02;;
74371;SDS011;62885;51.374;6.170;2023-09-18T09:10:40;4.13;;;1.08;;
74371;SDS011;62885;51.374;6.170;2023-09-18T09:13:05;2.15;;;1.00;;
74371;SDS011;62885;51.374;6.170;2023-09-18T09:15:48;3.97;;;1.10;;
74371;SDS011;62885;51.374;6.170;2023-09-18T09:18:15;6.03;;;1.42;;
74371;SDS011;62885;51.374;6.170;2023-09-18T09:20:41;3.40;;;1.50;;
74371;SDS011;62885;51.374;6.170;2023-09-18T09:23:17;4.30;;;1.23;;
74371;SDS011;62885;51.374;6.170;2023-09-18T09:25:42;4.38;;;1.40;;
74371;SDS011;62885;51.374;6.170;2023-09-18T09:28:08;3.83;;;1.30;;
74371;SDS011;62885;51.374;6.170;2023-09-18T09:30:34;5.43;;;1.70;;
74371;SDS011;62885;51.374;6.170;2023-09-18T09:33:03;2.60;;;1.20;;
74371;SDS011;62885;51.374;6.170;2023-09-18T09:35:31;7.53;;;1.60;;
74371;SDS011;62885;51.374;6.170;2023-09-18T09:40:28;5.05;;;1.30;;
74371;SDS011;62885;51.374;6.170;2023-09-18T09:42:55;5.90;;;1.52;;
74371;SDS011;62885;51.374;6.170;2023-09-18T09:45:28;2.97;;;1.27;;
74371;SDS011;62885;51.374;6.170;2023-09-18T09:48:01;3.88;;;1.20;;
74371;SDS011;62885;51.374;6.170;2023-09-18T09:50:29;4.07;;;1.60;;
74371;SDS011;62885;51.374;6.170;2023-09-18T09:52:55;4.78;;;1.48;;
74371;SDS011;62885;51.374;6.170;2023-09-18T09:57:59;3.45;;;1.60;;
74371;SDS011;62885;51.374;6.170;2023-09-18T10:00:28;4.35;;;1.55;;
74371;SDS011;62885;51.374;6.170;2023-09-18T10:03:03;3.97;;;1.60;;
74371;SDS011;62885;51.374;6.170;2023-09-18T10:05:30;4.28;;;1.50;;
74371;SDS011;62885;51.374;6.170;2023-09-18T10:07:58;6.03;;;1.60;;
74371;SDS011;62885;51.374;6.170;2023-09-18T10:10:29;3.83;;;1.45;;
74371;SDS011;62885;51.374;6.170;2023-09-18T10:12:57;4.93;;;1.58;;
74371;SDS011;62885;51.374;6.170;2023-09-18T10:15:28;5.43;;;1.65;;
74371;SDS011;62885;51.374;6.170;2023-09-18T10:17:58;9.30;;;2.45;;
74371;SDS011;62885;51.374;6.170;2023-09-18T10:20:25;5.93;;;2.20;;
74371;SDS011;62885;51.374;6.170;2023-09-18T10:22:52;4.80;;;1.80;;
74371;SDS011;62885;51.374;6.170;2023-09-18T10:25:22;3.22;;;1.70;;
74371;SDS011;62885;51.374;6.170;2023-09-18T10:27:50;8.32;;;3.30;;
74371;SDS011;62885;51.374;6.170;2023-09-18T10:30:23;6.18;;;1.90;;
74371;SDS011;62885;51.374;6.170;2023-09-18T10:32:50;3.88;;;1.65;;
74371;SDS011;62885;51.374;6.170;2023-09-18T10:35:16;5.95;;;1.60;;
74371;SDS011;62885;51.374;6.170;2023-09-18T10:37:44;5.15;;;1.48;;
74371;SDS011;62885;51.374;6.170;2023-09-18T10:40:11;3.75;;;1.77;;
74371;SDS011;62885;51.374;6.170;2023-09-18T10:42:40;4.25;;;1.58;;
74371;SDS011;62885;51.374;6.170;2023-09-18T10:45:11;5.45;;;1.77;;
74371;SDS011;62885;51.374;6.170;2023-09-18T10:47:38;2.30;;;1.23;;
74371;SDS011;62885;51.374;6.170;2023-09-18T10:50:06;6.60;;;2.33;;
74371;SDS011;62885;51.374;6.170;2023-09-18T10:52:35;4.20;;;1.85;;
74371;SDS011;62885;51.374;6.170;2023-09-18T10:55:10;4.15;;;1.80;;
74371;SDS011;62885;51.374;6.170;2023-09-18T10:57:37;2.60;;;1.25;;
74371;SDS011;62885;51.374;6.170;2023-09-18T11:00:04;6.18;;;1.77;;
74371;SDS011;62885;51.374;6.170;2023-09-18T11:02:39;3.33;;;1.67;;
74371;SDS011;62885;51.374;6.170;2023-09-18T11:05:05;7.25;;;2.33;;
74371;SDS011;62885;51.374;6.170;2023-09-18T11:07:31;5.03;;;1.60;;
74371;SDS011;62885;51.374;6.170;2023-09-18T11:09:56;4.40;;;1.80;;
74371;SDS011;62885;51.374;6.170;2023-09-18T11:12:22;5.68;;;1.90;;
74371;SDS011;62885;51.374;6.170;2023-09-18T11:15:08;7.25;;;1.90;;
74371;SDS011;62885;51.374;6.170;2023-09-18T11:17:38;5.93;;;2.10;;
74371;SDS011;62885;51.374;6.170;2023-09-18T11:20:05;3.90;;;1.92;;
74371;SDS011;62885;51.374;6.170;2023-09-18T11:22:45;4.95;;;1.73;;
74371;SDS011;62885;51.374;6.170;2023-09-18T11:28:06;5.40;;;1.65;;
74371;SDS011;62885;51.374;6.170;2023-09-18T11:30:36;4.78;;;1.90;;
74371;SDS011;62885;51.374;6.170;2023-09-18T11:33:05;7.30;;;3.75;;
74371;SDS011;62885;51.374;6.170;2023-09-18T11:35:33;4.47;;;1.70;;
74371;SDS011;62885;51.374;6.170;2023-09-18T11:38:03;6.50;;;2.05;;
74371;SDS011;62885;51.374;6.170;2023-09-18T11:40:33;4.72;;;1.63;;
74371;SDS011;62885;51.374;6.170;2023-09-18T11:45:51;6.20;;;1.75;;
74371;SDS011;62885;51.374;6.170;2023-09-18T11:48:19;3.15;;;1.60;;
74371;SDS011;62885;51.374;6.170;2023-09-18T11:50:46;4.22;;;1.65;;
74371;SDS011;62885;51.374;6.170;2023-09-18T11:53:15;4.75;;;1.63;;
74371;SDS011;62885;51.374;6.170;2023-09-18T11:55:43;4.00;;;1.67;;
74371;SDS011;62885;51.374;6.170;2023-09-18T11:58:11;5.25;;;1.73;;
74371;SDS011;62885;51.374;6.170;2023-09-18T12:00:37;4.05;;;1.77;;
74371;SDS011;62885;51.374;6.170;2023-09-18T12:03:14;4.00;;;1.27;;
74371;SDS011;62885;51.374;6.170;2023-09-18T12:05:59;4.03;;;1.50;;
74371;SDS011;62885;51.374;6.170;2023-09-18T12:08:26;6.05;;;1.40;;
74371;SDS011;62885;51.374;6.170;2023-09-18T12:10:55;2.70;;;1.33;;
74371;SDS011;62885;51.374;6.170;2023-09-18T12:13:21;4.57;;;1.60;;
74371;SDS011;62885;51.374;6.170;2023-09-18T12:15:49;4.07;;;1.40;;
74371;SDS011;62885;51.374;6.170;2023-09-18T12:18:15;7.80;;;1.65;;
74371;SDS011;62885;51.374;6.170;2023-09-18T12:20:44;5.05;;;1.50;;
74371;SDS011;62885;51.374;6.170;2023-09-18T12:23:11;4.40;;;1.70;;
74371;SDS011;62885;51.374;6.170;2023-09-18T12:25:36;3.78;;;1.50;;
74371;SDS011;62885;51.374;6.170;2023-09-18T12:28:03;4.63;;;1.70;;
74371;SDS011;62885;51.374;6.170;2023-09-18T12:30:32;5.90;;;1.90;;
74371;SDS011;62885;51.374;6.170;2023-09-18T12:32:58;2.50;;;1.33;;
74371;SDS011;62885;51.374;6.170;2023-09-18T12:35:28;3.30;;;1.40;;
74371;SDS011;62885;51.374;6.170;2023-09-18T12:37:55;4.43;;;1.77;;
74371;SDS011;62885;51.374;6.170;2023-09-18T12:40:28;4.60;;;1.70;;
74371;SDS011;62885;51.374;6.170;2023-09-18T12:42:56;5.47;;;2.13;;
74371;SDS011;62885;51.374;6.170;2023-09-18T12:45:23;7.57;;;1.70;;
74371;SDS011;62885;51.374;6.170;2023-09-18T12:47:49;6.88;;;2.45;;
74371;SDS011;62885;51.374;6.170;2023-09-18T12:50:16;5.13;;;1.65;;
74371;SDS011;62885;51.374;6.170;2023-09-18T12:52:42;4.50;;;1.60;;
74371;SDS011;62885;51.374;6.170;2023-09-18T12:55:08;2.90;;;1.30;;
74371;SDS011;62885;51.374;6.170;2023-09-18T12:57:33;3.78;;;1.40;;
74371;SDS011;62885;51.374;6.170;2023-09-18T12:59:59;3.25;;;1.30;;
74371;SDS011;62885;51.374;6.170;2023-09-18T13:02:27;5.05;;;1.98;;
74371;SDS011;62885;51.374;6.170;2023-09-18T13:04:54;4.07;;;1.63;;
74371;SDS011;62885;51.374;6.170;2023-09-18T13:07:21;5.38;;;2.58;;
74371;SDS011;62885;51.374;6.170;2023-09-18T13:09:58;4.05;;;1.60;;
74371;SDS011;62885;51.374;6.170;2023-09-18T13:12:48;2.22;;;1.38;;
74371;SDS011;62885;51.374;6.170;2023-09-18T13:17:55;6.22;;;1.55;;
74371;SDS011;62885;51.374;6.170;2023-09-18T13:20:25;2.83;;;1.50;;
74371;SDS011;62885;51.374;6.170;2023-09-18T13:22:55;6.40;;;1.75;;
74371;SDS011;62885;51.374;6.170;2023-09-18T13:25:22;4.85;;;1.63;;
74371;SDS011;62885;51.374;6.170;2023-09-18T13:27:50;3.28;;;1.85;;
74371;SDS011;62885;51.374;6.170;2023-09-18T13:30:16;4.25;;;1.70;;
74371;SDS011;62885;51.374;6.170;2023-09-18T13:32:43;7.20;;;1.70;;
74371;SDS011;62885;51.374;6.170;2023-09-18T13:35:09;3.65;;;1.50;;
74371;SDS011;62885;51.374;6.170;2023-09-18T13:37:37;4.10;;;1.40;;
74371;SDS011;62885;51.374;6.170;2023-09-18T13:40:04;1.95;;;1.30;;
74371;SDS011;62885;51.374;6.170;2023-09-18T13:42:34;3.60;;;1.40;;
74371;SDS011;62885;51.374;6.170;2023-09-18T13:45:00;4.30;;;1.85;;
74371;SDS011;62885;51.374;6.170;2023-09-18T13:47:29;4.05;;;1.52;;
74371;SDS011;62885;51.374;6.170;2023-09-18T13:49:54;3.45;;;1.33;;
74371;SDS011;62885;51.374;6.170;2023-09-18T13:52:25;8.90;;;1.58;;
74371;SDS011;62885;51.374;6.170;2023-09-18T13:54:51;2.95;;;1.30;;
74371;SDS011;62885;51.374;6.170;2023-09-18T13:57:20;6.22;;;1.25;;
74371;SDS011;62885;51.374;6.170;2023-09-18T13:59:46;5.85;;;1.33;;
74371;SDS011;62885;51.374;6.170;2023-09-18T14:02:13;3.75;;;1.33;;
74371;SDS011;62885;51.374;6.170;2023-09-18T14:04:39;3.13;;;1.40;;
74371;SDS011;62885;51.374;6.170;2023-09-18T14:07:08;3.30;;;1.42;;
74371;SDS011;62885;51.374;6.170;2023-09-18T14:09:34;4.05;;;1.92;;
74371;SDS011;62885;51.374;6.170;2023-09-18T14:11:59;2.20;;;1.10;;
74371;SDS011;62885;51.374;6.170;2023-09-18T14:14:25;4.05;;;2.45;;
74371;SDS011;62885;51.374;6.170;2023-09-18T14:16:51;3.92;;;1.30;;
74371;SDS011;62885;51.374;6.170;2023-09-18T14:19:16;3.85;;;1.58;;
74371;SDS011;62885;51.374;6.170;2023-09-18T14:21:42;2.03;;;1.10;;
74371;SDS011;62885;51.374;6.170;2023-09-18T14:24:08;3.83;;;1.33;;
74371;SDS011;62885;51.374;6.170;2023-09-18T14:26:34;7.28;;;1.73;;
74371;SDS011;62885;51.374;6.170;2023-09-18T14:29:06;5.00;;;1.40;;
74371;SDS011;62885;51.374;6.170;2023-09-18T14:31:33;4.75;;;1.50;;
74371;SDS011;62885;51.374;6.170;2023-09-18T14:33:58;3.67;;;1.30;;
74371;SDS011;62885;51.374;6.170;2023-09-18T14:36:25;5.13;;;1.25;;
74371;SDS011;62885;51.374;6.170;2023-09-18T14:38:50;2.58;;;1.35;;
74371;SDS011;62885;51.374;6.170;2023-09-18T14:41:16;3.33;;;1.30;;
74371;SDS011;62885;51.374;6.170;2023-09-18T14:43:43;4.13;;;1.27;;
74371;SDS011;62885;51.374;6.170;2023-09-18T14:46:08;3.95;;;1.30;;
74371;SDS011;62885;51.374;6.170;2023-09-18T14:48:34;3.95;;;1.30;;
74371;SDS011;62885;51.374;6.170;2023-09-18T14:50:59;3.38;;;1.20;;
74371;SDS011;62885;51.374;6.170;2023-09-18T14:53:25;3.83;;;1.42;;
74371;SDS011;62885;51.374;6.170;2023-09-18T14:55:51;3.15;;;1.30;;
74371;SDS011;62885;51.374;6.170;2023-09-18T14:58:16;2.85;;;1.20;;
74371;SDS011;62885;51.374;6.170;2023-09-18T15:00:43;3.78;;;1.20;;
74371;SDS011;62885;51.374;6.170;2023-09-18T15:03:09;1.77;;;1.05;;